Time;durP1;ratioP1;P1;durP2;ratioP2;P2;SDS_P1;SDS_P2;PMS_P1;PMS_P2;Temp;Humidity;BMP_temperature;BMP_pressure;BME280_temperature;BME280_humidity;BME280_pressure;Samples;Min_cycle;Max_cycle;Signal;HPM_P1;HPM_P2
2024/03/14 00:01:00;;;;;;;15.25;9.27;;;10.60;99.90;;;;;;5071253;28;20137;-69
2024/03/14 00:03:28;;;;;;;16.35;9.40;;;10.60;99.90;;;;;;5070600;28;20054;-69
2024/03/14 00:05:54;;;;;;;14.52;9.02;;;10.60;99.90;;;;;;5071181;28;20068;-69
2024/03/14 00:08:20;;;;;;;13.10;8.63;;;10.60;99.90;;;;;;5071216;28;20041;-69
2024/03/14 00:10:47;;;;;;;19.30;8.88;;;10.60;99.90;;;;;;5070747;28;20047;-69
2024/03/14 00:13:13;;;;;;;13.70;8.82;;;10.70;99.90;;;;;;5070361;28;20040;-69
2024/03/14 00:15:39;;;;;;;15.98;9.23;;;10.70;99.90;;;;;;5070881;28;20037;-69
2024/03/14 00:18:04;;;;;;;14.57;9.05;;;10.60;99.90;;;;;;5071205;28;20079;-69
2024/03/14 00:20:31;;;;;;;13.18;9.30;;;10.60;99.90;;;;;;5070942;28;20135;-69
2024/03/14 00:22:58;;;;;;;15.18;8.18;;;10.60;99.90;;;;;;5070278;28;20051;-69
2024/03/14 00:25:24;;;;;;;11.45;8.07;;;10.70;99.90;;;;;;5070954;28;20492;-69
2024/03/14 00:27:49;;;;;;;15.98;8.45;;;10.70;99.90;;;;;;5071077;28;20045;-69
2024/03/14 00:30:18;;;;;;;13.40;8.57;;;10.60;99.90;;;;;;5070718;28;20094;-69
2024/03/14 00:32:44;;;;;;;10.00;7.28;;;10.60;99.90;;;;;;5070245;28;20048;-69
2024/03/14 00:35:12;;;;;;;11.15;7.03;;;10.60;99.90;;;;;;5069596;28;20045;-69
2024/03/14 00:37:39;;;;;;;12.68;7.63;;;10.70;99.90;;;;;;5070936;28;20047;-69
2024/03/14 00:40:07;;;;;;;10.35;7.32;;;10.60;99.90;;;;;;5070545;28;20418;-70
2024/03/14 00:42:34;;;;;;;13.15;7.93;;;10.60;99.90;;;;;;5070138;28;20554;-69
2024/03/14 00:45:00;;;;;;;10.70;7.43;;;10.60;99.90;;;;;;5069605;28;20500;-69
2024/03/14 00:47:26;;;;;;;11.65;7.20;;;10.60;99.90;;;;;;5073560;28;20048;-69
2024/03/14 00:49:52;;;;;;;12.23;7.35;;;10.60;99.90;;;;;;5072811;28;20051;-69
2024/03/14 00:52:19;;;;;;;13.57;7.28;;;10.60;99.90;;;;;;5073697;28;20037;-69
2024/03/14 00:54:45;;;;;;;9.57;6.72;;;10.60;99.90;;;;;;5072996;28;20044;-69
2024/03/14 00:57:10;;;;;;;9.48;6.50;;;10.60;99.90;;;;;;5074145;28;20033;-69
2024/03/14 00:59:36;;;;;;;8.90;6.47;;;10.60;99.90;;;;;;5074148;28;20044;-69
2024/03/14 01:02:02;;;;;;;11.50;6.75;;;10.60;99.90;;;;;;5072352;28;20049;-69
2024/03/14 01:04:29;;;;;;;11.30;6.57;;;10.60;99.90;;;;;;5072460;28;20048;-69
2024/03/14 01:06:55;;;;;;;14.25;7.18;;;10.60;99.90;;;;;;5074102;28;20083;-69
2024/03/14 01:09:24;;;;;;;12.27;6.85;;;10.60;99.90;;;;;;5072525;28;20041;-69
2024/03/14 01:11:52;;;;;;;11.48;6.43;;;10.70;99.90;;;;;;5073667;28;20044;-69
2024/03/14 01:14:18;;;;;;;10.75;7.20;;;10.60;99.90;;;;;;5073807;28;20041;-69
2024/03/14 01:16:44;;;;;;;9.38;6.53;;;10.60;99.90;;;;;;5073893;28;20040;-69
2024/03/14 01:19:11;;;;;;;9.80;6.88;;;10.50;99.90;;;;;;5073698;28;20032;-69
2024/03/14 01:21:39;;;;;;;11.98;7.28;;;10.50;99.90;;;;;;5073306;28;20048;-69
2024/03/14 01:24:05;;;;;;;13.30;7.72;;;10.60;99.90;;;;;;5073537;28;20040;-69
2024/03/14 01:26:34;;;;;;;11.88;6.40;;;10.60;99.90;;;;;;5073820;28;20044;-69
2024/03/14 01:29:00;;;;;;;10.95;7.13;;;10.50;99.90;;;;;;5072229;28;20439;-69
2024/03/14 01:31:26;;;;;;;11.07;7.65;;;10.50;99.90;;;;;;5073261;28;20173;-69
2024/03/14 01:33:52;;;;;;;13.13;7.13;;;10.50;99.90;;;;;;5073372;28;20443;-69
2024/03/14 01:36:17;;;;;;;10.30;7.00;;;10.50;99.90;;;;;;5072300;28;20389;-69
2024/03/14 01:38:43;;;;;;;11.13;6.57;;;10.50;99.90;;;;;;5073357;28;20081;-69
2024/03/14 01:41:19;;;;;;;13.07;7.38;;;10.50;99.90;;;;;;5073750;28;20032;-69
2024/03/14 01:44:01;;;;;;;13.15;6.40;;;10.60;99.90;;;;;;5072983;28;20040;-69
2024/03/14 01:46:28;;;;;;;10.15;6.85;;;10.50;99.90;;;;;;5073440;28;20041;-69
2024/03/14 01:48:55;;;;;;;11.15;7.07;;;10.60;99.90;;;;;;5073276;28;20105;-69
2024/03/14 01:51:22;;;;;;;11.52;6.53;;;10.50;99.90;;;;;;5073012;28;20040;-69
2024/03/14 01:53:49;;;;;;;11.25;7.25;;;10.50;99.90;;;;;;5071671;28;20119;-69
2024/03/14 01:56:15;;;;;;;11.77;6.53;;;10.50;99.90;;;;;;5071766;28;20044;-69
2024/03/14 01:58:40;;;;;;;8.70;6.13;;;10.40;99.90;;;;;;5071935;28;20546;-69
2024/03/14 02:01:06;;;;;;;10.25;6.28;;;10.40;99.90;;;;;;5072025;28;20051;-69
2024/03/14 02:03:32;;;;;;;12.98;7.32;;;10.40;99.90;;;;;;5072263;28;20051;-70
2024/03/14 02:06:24;;;;;;;9.00;6.38;;;10.40;99.90;;;;;;5073070;28;20432;-69
2024/03/14 02:08:50;;;;;;;11.15;6.05;;;10.40;99.90;;;;;;5072522;28;20046;-69
2024/03/14 02:11:15;;;;;;;10.40;5.95;;;10.30;99.90;;;;;;5071815;28;20126;-69
2024/03/14 02:13:41;;;;;;;9.93;6.10;;;10.30;99.90;;;;;;5072004;28;20514;-69
2024/03/14 02:16:07;;;;;;;15.15;6.60;;;10.30;99.90;;;;;;5071275;28;20040;-69
2024/03/14 02:18:33;;;;;;;12.65;6.28;;;10.10;99.90;;;;;;5072904;28;20385;-69
2024/03/14 02:20:59;;;;;;;8.57;5.20;;;10.10;99.90;;;;;;5071747;28;20043;-69
2024/03/14 02:23:24;;;;;;;12.30;6.45;;;10.10;99.90;;;;;;5072060;28;20044;-69
2024/03/14 02:25:50;;;;;;;12.80;5.88;;;10.10;99.90;;;;;;5072469;28;20086;-69
2024/03/14 02:28:15;;;;;;;8.05;5.80;;;10.00;99.90;;;;;;5072450;28;20393;-69
2024/03/14 02:30:41;;;;;;;8.85;6.30;;;10.00;99.90;;;;;;5072564;28;20197;-69
2024/03/14 02:33:08;;;;;;;8.93;6.07;;;10.00;99.90;;;;;;5071945;28;20089;-69
2024/03/14 02:35:34;;;;;;;9.13;6.13;;;10.10;99.90;;;;;;5072392;28;20455;-69
2024/03/14 02:37:59;;;;;;;10.75;6.78;;;10.00;99.90;;;;;;5071160;28;20111;-69
2024/03/14 02:40:25;;;;;;;13.05;6.93;;;10.00;99.90;;;;;;5072093;28;20404;-69
2024/03/14 02:42:50;;;;;;;10.52;6.68;;;10.00;99.90;;;;;;5071507;28;20094;-69
2024/03/14 02:45:20;;;;;;;9.40;6.55;;;9.90;99.90;;;;;;5072406;28;20044;-69
2024/03/14 02:47:46;;;;;;;12.15;7.15;;;10.00;99.90;;;;;;5072346;28;20400;-69
2024/03/14 02:50:12;;;;;;;13.50;7.57;;;9.90;99.90;;;;;;5072037;28;20082;-69
2024/03/14 02:52:38;;;;;;;13.75;7.93;;;9.90;99.90;;;;;;5070528;28;20064;-69
2024/03/14 02:55:07;;;;;;;10.32;7.32;;;9.90;99.90;;;;;;5070997;28;20032;-70
2024/03/14 02:57:35;;;;;;;11.98;7.70;;;9.90;99.90;;;;;;5071550;28;20044;-70
2024/03/14 03:00:04;;;;;;;13.95;7.88;;;9.80;99.90;;;;;;5070628;28;20072;-69
2024/03/14 03:02:30;;;;;;;16.10;7.78;;;9.90;99.90;;;;;;5071335;28;20063;-70
2024/03/14 03:04:56;;;;;;;13.60;8.00;;;9.80;99.90;;;;;;5070569;28;20052;-70
2024/03/14 03:07:22;;;;;;;9.82;7.45;;;9.80;99.90;;;;;;5071804;28;20490;-70
2024/03/14 03:09:49;;;;;;;14.90;8.63;;;9.70;99.90;;;;;;5071306;28;20036;-70
2024/03/14 03:12:14;;;;;;;12.23;7.75;;;9.80;99.90;;;;;;5070958;28;20045;-70
2024/03/14 03:14:40;;;;;;;11.93;7.88;;;9.70;99.90;;;;;;5071930;28;20523;-70
2024/03/14 03:17:06;;;;;;;14.57;8.40;;;9.80;99.90;;;;;;5071703;28;20531;-70
2024/03/14 03:19:31;;;;;;;14.50;8.23;;;9.70;99.90;;;;;;5071386;28;20123;-71
2024/03/14 03:21:58;;;;;;;12.02;8.13;;;9.70;99.90;;;;;;5071117;28;20044;-70
2024/03/14 03:24:24;;;;;;;12.30;8.05;;;9.70;99.90;;;;;;5071449;28;20044;-71
2024/03/14 03:26:50;;;;;;;14.35;8.45;;;9.70;99.90;;;;;;5071274;28;20047;-70
2024/03/14 03:29:16;;;;;;;15.10;8.73;;;9.70;99.90;;;;;;5071373;28;20558;-70
2024/03/14 03:31:42;;;;;;;16.23;9.85;;;9.60;99.90;;;;;;5071195;28;20044;-70
2024/03/14 03:34:08;;;;;;;15.68;9.65;;;9.70;99.90;;;;;;5071496;28;20552;-70
2024/03/14 03:36:34;;;;;;;16.70;9.65;;;9.70;99.90;;;;;;5070260;28;20036;-70
2024/03/14 03:39:00;;;;;;;13.07;9.77;;;9.70;99.90;;;;;;5071187;28;20076;-70
2024/03/14 03:41:29;;;;;;;16.92;11.25;;;9.70;99.90;;;;;;5071250;28;20138;-70
2024/03/14 03:43:56;;;;;;;19.10;11.30;;;9.70;99.90;;;;;;5071494;28;20028;-70
2024/03/14 03:46:21;;;;;;;21.50;11.98;;;9.70;99.90;;;;;;5071598;28;20090;-70
2024/03/14 03:48:47;;;;;;;18.83;11.07;;;9.60;99.90;;;;;;5071342;28;20036;-70
2024/03/14 03:51:13;;;;;;;20.23;11.75;;;9.70;99.90;;;;;;5071085;28;20407;-70
2024/03/14 03:53:39;;;;;;;17.00;11.65;;;9.70;99.90;;;;;;5068788;28;20076;-70
2024/03/14 03:56:04;;;;;;;18.05;11.90;;;9.70;99.90;;;;;;5071315;28;20071;-70
2024/03/14 03:58:32;;;;;;;16.73;11.23;;;9.60;99.90;;;;;;5071535;28;20423;-70
2024/03/14 04:01:06;;;;;;;18.08;12.20;;;9.60;99.90;;;;;;5071115;28;20039;-70
2024/03/14 04:03:33;;;;;;;22.25;13.98;;;9.70;99.90;;;;;;5070694;28;20094;-71
2024/03/14 04:06:00;;;;;;;19.58;13.48;;;9.60;99.90;;;;;;5071283;28;20123;-70
2024/03/14 04:08:26;;;;;;;21.02;13.52;;;9.60;99.90;;;;;;5071082;28;20037;-70
2024/03/14 04:10:52;;;;;;;20.92;13.10;;;9.70;99.90;;;;;;5071194;28;20067;-70
2024/03/14 04:13:17;;;;;;;20.20;13.77;;;9.60;99.90;;;;;;5069121;28;20484;-70
2024/03/14 04:15:43;;;;;;;19.92;14.00;;;9.70;99.90;;;;;;5071229;28;20040;-70
2024/03/14 04:18:09;;;;;;;18.90;11.60;;;9.60;99.90;;;;;;5071134;28;20044;-70
2024/03/14 04:20:37;;;;;;;24.40;14.15;;;9.60;99.90;;;;;;5071543;28;20069;-70
2024/03/14 04:23:05;;;;;;;17.20;13.07;;;9.50;99.90;;;;;;5074159;28;20051;-70
2024/03/14 04:25:31;;;;;;;21.40;13.85;;;9.60;99.90;;;;;;5075162;28;20102;-71
2024/03/14 04:27:57;;;;;;;22.20;14.57;;;9.60;99.90;;;;;;5074009;28;20053;-70
2024/03/14 04:30:23;;;;;;;19.30;13.48;;;9.60;99.90;;;;;;5074994;28;20045;-70
2024/03/14 04:32:49;;;;;;;21.77;13.95;;;9.50;99.90;;;;;;5074282;28;20045;-70
2024/03/14 04:35:16;;;;;;;18.70;13.88;;;9.50;99.90;;;;;;5073532;28;20040;-70
2024/03/14 04:37:47;;;;;;;19.67;14.18;;;9.60;99.90;;;;;;5074709;28;20039;-70
2024/03/14 04:40:13;;;;;;;23.00;13.45;;;9.50;99.90;;;;;;5074721;28;20078;-70
2024/03/14 04:42:42;;;;;;;18.30;13.32;;;9.60;99.90;;;;;;5073889;28;20047;-70
2024/03/14 04:45:12;;;;;;;18.70;13.18;;;9.40;99.90;;;;;;5073632;28;20045;-70
2024/03/14 04:47:39;;;;;;;17.65;12.57;;;9.50;99.90;;;;;;5074570;28;20124;-70
2024/03/14 04:50:08;;;;;;;18.52;12.90;;;9.40;99.90;;;;;;5089566;28;20512;-70
2024/03/14 04:52:34;;;;;;;17.85;12.52;;;9.30;99.90;;;;;;5073890;28;20040;-70
2024/03/14 04:55:00;;;;;;;18.63;12.98;;;9.30;99.90;;;;;;5074240;28;20044;-70
2024/03/14 04:57:26;;;;;;;18.38;13.15;;;9.20;99.90;;;;;;5074463;28;20135;-70
2024/03/14 04:59:52;;;;;;;17.40;12.23;;;9.30;99.90;;;;;;5073997;28;20516;-70
2024/03/14 05:02:18;;;;;;;20.20;13.90;;;9.20;99.90;;;;;;5089233;28;20434;-70
2024/03/14 05:04:43;;;;;;;17.73;12.05;;;9.20;99.90;;;;;;5073828;28;20175;-70
2024/03/14 05:07:09;;;;;;;19.02;12.88;;;9.30;99.90;;;;;;5072853;28;20039;-70
2024/03/14 05:09:35;;;;;;;18.05;12.55;;;9.20;99.90;;;;;;5074067;28;20076;-70
2024/03/14 05:12:00;;;;;;;19.25;13.20;;;9.20;99.90;;;;;;5073570;28;20516;-70
2024/03/14 05:14:26;;;;;;;20.35;12.90;;;9.20;99.90;;;;;;5074074;28;20036;-70
2024/03/14 05:16:52;;;;;;;17.25;12.90;;;9.20;99.90;;;;;;5073975;28;20385;-70
2024/03/14 05:19:20;;;;;;;18.67;13.07;;;9.20;99.90;;;;;;5073531;28;20037;-70
2024/03/14 05:21:46;;;;;;;17.95;12.82;;;9.10;99.90;;;;;;5073587;28;20050;-70
2024/03/14 05:24:12;;;;;;;17.23;12.82;;;9.10;99.90;;;;;;5073635;28;20381;-70
2024/03/14 05:26:40;;;;;;;17.70;12.10;;;9.20;99.90;;;;;;5089451;28;20032;-70
2024/03/14 05:29:06;;;;;;;20.50;12.73;;;9.20;99.90;;;;;;5073638;28;20070;-70
2024/03/14 05:31:34;;;;;;;15.73;10.98;;;9.10;99.90;;;;;;5073087;28;20040;-70
2024/03/14 05:34:00;;;;;;;20.13;13.35;;;9.10;99.90;;;;;;5073646;28;20044;-70
2024/03/14 05:36:25;;;;;;;18.08;13.27;;;9.00;99.90;;;;;;5073764;28;20147;-70
2024/03/14 05:38:51;;;;;;;17.45;11.35;;;9.10;99.90;;;;;;5073473;28;20032;-70
2024/03/14 05:41:17;;;;;;;19.25;12.82;;;9.10;99.90;;;;;;5073608;28;20650;-70
2024/03/14 05:43:45;;;;;;;17.65;11.98;;;9.10;99.90;;;;;;5072974;28;20044;-70
2024/03/14 05:46:11;;;;;;;16.48;12.60;;;9.10;99.90;;;;;;5073133;28;20407;-70
2024/03/14 05:48:37;;;;;;;17.77;12.88;;;9.00;99.90;;;;;;5073182;28;20044;-70
2024/03/14 05:51:02;;;;;;;17.65;12.93;;;9.00;99.90;;;;;;5073330;28;20119;-70
2024/03/14 05:53:31;;;;;;;18.13;12.52;;;9.10;99.90;;;;;;5072603;28;20527;-70
2024/03/14 05:55:58;;;;;;;17.98;11.48;;;9.10;99.90;;;;;;5073048;28;20063;-70
2024/03/14 05:58:25;;;;;;;19.60;11.90;;;9.10;99.90;;;;;;5073282;28;20036;-70
2024/03/14 06:00:51;;;;;;;14.88;11.82;;;9.00;99.90;;;;;;5072702;28;20045;-70
2024/03/14 06:03:17;;;;;;;21.27;12.35;;;9.00;99.90;;;;;;5071175;28;20114;-70
2024/03/14 06:05:42;;;;;;;16.85;11.68;;;9.00;99.90;;;;;;5073181;28;20496;-70
2024/03/14 06:08:08;;;;;;;21.15;13.50;;;9.00;99.90;;;;;;5072752;28;20082;-70
2024/03/14 06:10:34;;;;;;;14.95;11.32;;;9.20;99.90;;;;;;5071480;28;20040;-70
2024/03/14 06:13:00;;;;;;;16.77;12.05;;;9.20;99.90;;;;;;5072392;28;20099;-70
2024/03/14 06:15:26;;;;;;;16.27;11.45;;;9.10;99.90;;;;;;5072764;28;20087;-70
2024/03/14 06:17:52;;;;;;;17.42;12.07;;;9.20;99.90;;;;;;5071524;28;20068;-70
2024/03/14 06:20:18;;;;;;;16.75;11.60;;;9.20;99.90;;;;;;5072630;28;20064;-70
2024/03/14 06:22:44;;;;;;;18.20;12.80;;;9.20;99.90;;;;;;5072204;28;20050;-70
2024/03/14 06:25:10;;;;;;;14.95;11.15;;;9.30;99.90;;;;;;5071199;28;20119;-70
2024/03/14 06:27:41;;;;;;;16.25;11.27;;;9.20;99.90;;;;;;5072636;28;20055;-70
2024/03/14 06:30:11;;;;;;;16.55;10.88;;;9.30;99.90;;;;;;5072240;28;20428;-70
2024/03/14 06:32:37;;;;;;;15.40;10.52;;;9.20;99.90;;;;;;5072068;28;20098;-70
2024/03/14 06:35:05;;;;;;;16.77;11.20;;;9.30;99.90;;;;;;5072610;28;20051;-70
2024/03/14 06:37:31;;;;;;;16.60;11.30;;;9.30;99.90;;;;;;5072424;28;20492;-70
2024/03/14 06:39:56;;;;;;;18.45;12.23;;;9.20;99.90;;;;;;5070829;28;20047;-70
2024/03/14 06:42:23;;;;;;;16.65;12.27;;;9.30;99.90;;;;;;5071748;28;20044;-70
2024/03/14 06:44:49;;;;;;;14.82;11.20;;;9.20;99.90;;;;;;5070468;28;20389;-70
2024/03/14 06:47:14;;;;;;;16.92;11.95;;;9.30;99.90;;;;;;5072234;28;20044;-70
2024/03/14 06:49:46;;;;;;;16.65;11.13;;;9.30;99.90;;;;;;5071808;28;20123;-70
2024/03/14 06:52:14;;;;;;;16.52;11.43;;;9.40;99.90;;;;;;5069959;28;20419;-70
2024/03/14 06:54:39;;;;;;;15.73;11.45;;;9.30;99.90;;;;;;5072046;28;20033;-70
2024/03/14 06:57:09;;;;;;;17.23;12.18;;;9.30;99.90;;;;;;5070540;28;20044;-70
2024/03/14 06:59:37;;;;;;;15.38;11.52;;;9.40;99.90;;;;;;5070691;28;20035;-70
2024/03/14 07:02:03;;;;;;;18.10;12.73;;;9.60;99.90;;;;;;5070354;28;20040;-70
2024/03/14 07:04:33;;;;;;;19.10;12.88;;;9.60;99.90;;;;;;5070702;28;20075;-70
2024/03/14 07:06:59;;;;;;;16.38;11.27;;;9.60;99.90;;;;;;5071365;28;20072;-70
2024/03/14 07:09:27;;;;;;;18.13;12.93;;;9.70;99.90;;;;;;5070273;28;20040;-70
2024/03/14 07:11:53;;;;;;;17.17;12.27;;;9.80;99.90;;;;;;5071447;28;20045;-70
2024/03/14 07:14:19;;;;;;;20.58;12.77;;;9.80;99.90;;;;;;5070308;28;20120;-70
2024/03/14 07:16:45;;;;;;;17.45;12.40;;;9.80;99.90;;;;;;5071938;28;20036;-70
2024/03/14 07:19:11;;;;;;;18.30;12.20;;;9.80;99.90;;;;;;5071513;28;20081;-70
2024/03/14 07:21:38;;;;;;;17.67;12.77;;;9.90;99.90;;;;;;5071004;28;20545;-70
2024/03/14 07:24:05;;;;;;;20.92;12.60;;;9.90;99.90;;;;;;5071565;28;20083;-70
2024/03/14 07:26:35;;;;;;;17.17;13.25;;;9.90;99.90;;;;;;5071551;28;20052;-70
2024/03/14 07:29:03;;;;;;;20.17;13.25;;;10.00;99.90;;;;;;5071071;28;20040;-70
2024/03/14 07:31:29;;;;;;;17.80;12.75;;;10.00;99.90;;;;;;5071230;28;20146;-70
2024/03/14 07:33:56;;;;;;;20.45;13.13;;;10.20;99.90;;;;;;5071204;28;20541;-70
2024/03/14 07:36:24;;;;;;;20.10;14.02;;;10.40;99.90;;;;;;5070095;28;20491;-71
2024/03/14 07:38:50;;;;;;;18.67;13.18;;;10.70;99.90;;;;;;5070080;28;20047;-70
2024/03/14 07:41:22;;;;;;;21.35;13.57;;;10.70;99.90;;;;;;5070512;28;20316;-70
2024/03/14 07:43:53;;;;;;;17.53;12.97;;;10.80;99.90;;;;;;5071208;28;20131;-70
2024/03/14 07:46:19;;;;;;;19.40;13.40;;;10.80;99.90;;;;;;5070004;28;20080;-70
2024/03/14 07:48:48;;;;;;;19.60;12.73;;;10.70;99.90;;;;;;5071205;28;20076;-70
2024/03/14 07:51:15;;;;;;;19.27;13.27;;;10.80;99.90;;;;;;5071388;28;20162;-70
2024/03/14 07:53:42;;;;;;;19.00;12.95;;;11.00;99.90;;;;;;5068978;28;20052;-70
2024/03/14 07:56:09;;;;;;;18.67;13.57;;;11.10;99.90;;;;;;5071657;28;20115;-70
2024/03/14 07:58:38;;;;;;;19.23;13.15;;;11.40;99.90;;;;;;5075390;28;20044;-70
2024/03/14 08:01:10;;;;;;;16.92;13.05;;;11.40;99.90;;;;;;5075476;28;20068;-70
2024/03/14 08:03:39;;;;;;;17.60;13.02;;;11.50;99.90;;;;;;5074794;28;20090;-70
2024/03/14 08:06:08;;;;;;;21.05;12.95;;;11.50;99.90;;;;;;5056922;28;20074;-70
2024/03/14 08:08:34;;;;;;;24.10;12.90;;;11.50;99.90;;;;;;5074776;28;20518;-70
2024/03/14 08:11:03;;;;;;;19.95;13.13;;;11.40;99.90;;;;;;5074973;28;20051;-70
2024/03/14 08:13:31;;;;;;;21.20;12.45;;;11.50;99.90;;;;;;5071834;28;20040;-71
2024/03/14 08:16:18;;;;;;;18.75;12.38;;;11.50;99.90;;;;;;5075152;28;20642;-70
2024/03/14 08:18:46;;;;;;;19.90;12.68;;;11.50;99.90;;;;;;5073802;28;20095;-70
2024/03/14 08:21:13;;;;;;;18.92;13.32;;;11.60;99.90;;;;;;5075288;28;20036;-70
2024/03/14 08:23:42;;;;;;;17.15;12.90;;;11.60;99.90;;;;;;5074422;28;20048;-70
2024/03/14 08:26:08;;;;;;;18.55;13.25;;;11.70;99.90;;;;;;5075013;28;20076;-70
2024/03/14 08:28:34;;;;;;;20.33;13.20;;;11.80;99.90;;;;;;5074801;28;20439;-70
2024/03/14 08:31:02;;;;;;;19.00;12.65;;;11.80;99.90;;;;;;5074815;28;20056;-70
2024/03/14 08:33:28;;;;;;;16.42;12.20;;;11.90;99.90;;;;;;5073910;28;20527;-70
2024/03/14 08:35:53;;;;;;;16.73;12.25;;;12.00;99.90;;;;;;5074721;28;20041;-71
2024/03/14 08:38:19;;;;;;;17.02;12.63;;;12.00;99.90;;;;;;5074711;28;20089;-70
2024/03/14 08:40:45;;;;;;;18.40;12.70;;;12.20;99.90;;;;;;5071852;28;20122;-71
2024/03/14 08:43:11;;;;;;;21.25;13.57;;;12.30;99.90;;;;;;5068019;28;20039;-70
2024/03/14 08:45:37;;;;;;;19.63;12.35;;;12.40;99.90;;;;;;5073396;28;20127;-70
2024/03/14 08:48:07;;;;;;;18.90;12.07;;;12.50;99.90;;;;;;5073819;28;20043;-70
2024/03/14 08:50:40;;;;;;;17.20;11.88;;;12.70;99.90;;;;;;5073692;28;20497;-70
2024/03/14 08:53:09;;;;;;;17.25;10.93;;;13.00;99.90;;;;;;5067174;28;20032;-70
2024/03/14 08:55:37;;;;;;;17.33;11.15;;;13.20;99.90;;;;;;5073924;28;20107;-70
2024/03/14 08:58:03;;;;;;;14.85;10.48;;;13.50;99.90;;;;;;5073640;28;20036;-70
2024/03/14 09:00:32;;;;;;;17.17;11.60;;;13.70;99.90;;;;;;5072496;28;20055;-70
2024/03/14 09:03:00;;;;;;;16.25;11.30;;;13.70;99.90;;;;;;5073366;28;20055;-71
2024/03/14 09:05:27;;;;;;;15.63;11.35;;;13.80;99.90;;;;;;5074303;28;20412;-70
2024/03/14 09:07:54;;;;;;;17.10;11.85;;;14.00;99.90;;;;;;5072521;28;20055;-70
2024/03/14 09:10:23;;;;;;;15.45;10.57;;;14.10;99.90;;;;;;5073802;28;20124;-70
2024/03/14 09:12:52;;;;;;;14.00;10.55;;;14.10;99.90;;;;;;5073426;28;20036;-71
2024/03/14 09:15:20;;;;;;;13.15;9.65;;;14.10;99.90;;;;;;5078685;28;20112;-71
2024/03/14 09:17:46;;;;;;;16.45;11.52;;;14.20;99.90;;;;;;5073163;28;20032;-70
2024/03/14 09:20:21;;;;;;;18.63;10.88;;;14.20;99.90;;;;;;5073036;28;20509;-70
2024/03/14 09:22:54;;;;;;;17.25;11.00;;;14.20;99.90;;;;;;5071113;28;20071;-70
2024/03/14 09:25:21;;;;;;;14.15;10.48;;;14.20;99.90;;;;;;5086449;28;20068;-70
2024/03/14 09:27:47;;;;;;;15.68;9.95;;;14.10;99.90;;;;;;5073242;28;20040;-70
2024/03/14 09:30:13;;;;;;;14.45;10.52;;;14.20;99.90;;;;;;5073357;28;20558;-71
2024/03/14 09:32:42;;;;;;;20.02;11.07;;;14.20;99.90;;;;;;5071362;28;20086;-70
2024/03/14 09:35:13;;;;;;;14.45;10.88;;;14.20;99.90;;;;;;5073424;28;20064;-70
2024/03/14 09:37:39;;;;;;;14.10;10.73;;;14.20;99.90;;;;;;5073028;28;20703;-70
2024/03/14 09:40:12;;;;;;;14.40;10.23;;;14.20;99.90;;;;;;5073197;28;20115;-71
2024/03/14 09:42:41;;;;;;;14.63;11.15;;;14.10;99.90;;;;;;5072828;28;20084;-70
2024/03/14 09:45:12;;;;;;;14.27;11.50;;;14.10;99.90;;;;;;5070477;28;20515;-70
2024/03/14 09:47:38;;;;;;;15.45;10.73;;;14.10;99.90;;;;;;5070105;28;20042;-70
2024/03/14 09:50:07;;;;;;;13.75;9.70;;;14.00;99.90;;;;;;5072444;28;20059;-70
2024/03/14 09:52:35;;;;;;;16.70;11.68;;;14.00;99.90;;;;;;5071165;28;20060;-70
2024/03/14 09:55:02;;;;;;;18.05;11.02;;;14.00;99.90;;;;;;5073310;28;20639;-71
2024/03/14 09:57:29;;;;;;;13.13;10.88;;;14.00;99.90;;;;;;5071478;28;20111;-70
2024/03/14 09:59:55;;;;;;;13.10;9.75;;;14.00;99.90;;;;;;5072761;28;20054;-71
2024/03/14 10:02:26;;;;;;;15.07;10.60;;;14.00;99.90;;;;;;5070623;28;20048;-71
2024/03/14 10:04:54;;;;;;;18.20;11.38;;;14.00;99.90;;;;;;5073258;28;20056;-70
2024/03/14 10:07:20;;;;;;;13.65;10.00;;;14.00;99.90;;;;;;5073139;28;20079;-71
2024/03/14 10:09:46;;;;;;;14.05;10.52;;;14.20;99.90;;;;;;5072872;28;20123;-71
2024/03/14 10:12:14;;;;;;;13.38;10.40;;;14.10;99.90;;;;;;5072096;28;20044;-71
2024/03/14 10:14:41;;;;;;;12.60;9.57;;;14.20;99.90;;;;;;5072897;28;20041;-70
2024/03/14 10:17:10;;;;;;;17.50;11.65;;;14.30;99.90;;;;;;5072658;28;20539;-70
2024/03/14 10:19:36;;;;;;;13.13;9.57;;;14.40;99.90;;;;;;5071892;28;20040;-70
2024/03/14 10:22:04;;;;;;;14.05;10.20;;;14.50;99.90;;;;;;5072281;28;20041;-70
2024/03/14 10:24:36;;;;;;;16.13;10.85;;;14.60;99.90;;;;;;5072916;28;20036;-70
2024/03/14 10:27:05;;;;;;;13.00;9.77;;;14.70;99.90;;;;;;5071371;28;20076;-71
2024/03/14 10:29:36;;;;;;;18.08;11.30;;;14.80;99.90;;;;;;5072217;28;20037;-70
2024/03/14 10:32:03;;;;;;;15.75;10.43;;;14.80;99.90;;;;;;5071436;28;20056;-70
2024/03/14 10:34:29;;;;;;;16.27;10.23;;;14.80;99.90;;;;;;5072116;28;20025;-70
2024/03/14 10:36:55;;;;;;;14.73;10.35;;;15.00;99.90;;;;;;5072308;28;20082;-70
2024/03/14 10:39:23;;;;;;;11.90;9.95;;;15.10;99.90;;;;;;5072101;28;20044;-70
2024/03/14 10:41:49;;;;;;;13.77;9.90;;;15.10;99.90;;;;;;5071318;28;20029;-71
2024/03/14 10:44:18;;;;;;;16.10;10.13;;;15.10;99.90;;;;;;5071589;28;20024;-70
2024/03/14 10:46:50;;;;;;;15.00;9.48;;;15.10;99.90;;;;;;5070868;28;20032;-70
2024/03/14 10:49:20;;;;;;;12.35;9.80;;;15.10;99.90;;;;;;5069398;28;20508;-70
2024/03/14 10:51:49;;;;;;;15.25;9.20;;;15.10;99.90;;;;;;5071647;28;20040;-71
2024/03/14 10:54:19;;;;;;;13.50;9.65;;;15.10;99.90;;;;;;5072059;28;20033;-70
2024/03/14 10:56:46;;;;;;;11.32;9.00;;;15.00;99.90;;;;;;5071669;28;20040;-71
2024/03/14 10:59:16;;;;;;;13.88;9.68;;;15.00;99.90;;;;;;5070819;28;20099;-70
2024/03/14 11:01:50;;;;;;;17.13;9.82;;;15.00;99.90;;;;;;5071316;28;20040;-70
2024/03/14 11:04:17;;;;;;;11.95;8.65;;;15.00;99.90;;;;;;5071765;28;20040;-70
2024/03/14 11:06:47;;;;;;;10.73;8.25;;;15.10;99.90;;;;;;5070640;28;20072;-70
2024/03/14 11:09:15;;;;;;;13.85;9.45;;;15.20;99.90;;;;;;5070336;28;20492;-70
2024/03/14 11:11:45;;;;;;;11.45;8.93;;;15.30;99.90;;;;;;5071555;28;20499;-70
2024/03/14 11:14:12;;;;;;;11.75;8.35;;;15.30;99.90;;;;;;5071817;28;20066;-70
2024/03/14 11:16:48;;;;;;;13.93;9.35;;;15.40;99.90;;;;;;5054160;28;20049;-70
2024/03/14 11:19:20;;;;;;;11.30;8.07;;;15.40;99.90;;;;;;5071661;28;20036;-70
2024/03/14 11:21:48;;;;;;;13.00;8.83;;;15.50;99.90;;;;;;5070766;28;20028;-70
2024/03/14 11:24:17;;;;;;;11.65;8.95;;;15.60;99.90;;;;;;5071466;28;20770;-69
2024/03/14 11:26:47;;;;;;;13.05;8.30;;;15.60;99.90;;;;;;5071730;28;20040;-69
2024/03/14 11:29:17;;;;;;;11.18;8.82;;;15.60;99.90;;;;;;5071186;28;20039;-70
2024/03/14 11:31:45;;;;;;;11.98;8.48;;;15.60;99.90;;;;;;5071204;28;20044;-69
2024/03/14 11:34:18;;;;;;;12.48;7.85;;;15.60;99.90;;;;;;5070706;28;20523;-70
2024/03/14 11:36:44;;;;;;;10.07;6.78;;;15.60;99.90;;;;;;5071678;28;20044;-69
2024/03/14 11:39:16;;;;;;;10.90;6.88;;;15.60;99.90;;;;;;5071431;28;20068;-70
2024/03/14 11:41:43;;;;;;;9.30;7.20;;;15.60;99.90;;;;;;5069814;28;20040;-69
2024/03/14 11:44:21;;;;;;;12.20;7.78;;;15.60;99.90;;;;;;5071397;28;20036;-69
2024/03/14 11:46:51;;;;;;;12.30;7.80;;;15.70;99.90;;;;;;5071297;28;20040;-69
2024/03/14 11:49:16;;;;;;;9.40;7.05;;;15.80;99.90;;;;;;5071177;28;20462;-70
2024/03/14 11:51:44;;;;;;;9.73;7.07;;;15.60;99.90;;;;;;5070913;28;20115;-69
2024/03/14 11:54:14;;;;;;;9.85;7.20;;;15.60;99.90;;;;;;5070697;28;20059;-70
2024/03/14 11:56:40;;;;;;;10.02;7.20;;;15.60;99.90;;;;;;5086844;28;20055;-70
2024/03/14 11:59:11;;;;;;;10.73;7.05;;;15.70;99.90;;;;;;5070840;28;20055;-69
2024/03/14 12:01:37;;;;;;;14.57;7.40;;;15.80;99.90;;;;;;5086709;28;20051;-69
2024/03/14 12:04:05;;;;;;;8.93;7.10;;;15.80;99.90;;;;;;5070112;28;20101;-69
2024/03/14 12:06:31;;;;;;;10.48;6.95;;;15.90;99.90;;;;;;5070955;28;20507;-69
2024/03/14 12:08:57;;;;;;;11.35;7.38;;;15.90;99.90;;;;;;5070658;28;20048;-72
2024/03/14 12:11:23;;;;;;;12.02;7.28;;;16.00;99.90;;;;;;5070868;28;20043;-70
2024/03/14 12:13:48;;;;;;;7.63;6.43;;;16.00;99.90;;;;;;5070564;28;20134;-70
2024/03/14 12:16:14;;;;;;;8.45;6.72;;;16.00;99.90;;;;;;5071216;28;20602;-73
2024/03/14 12:18:40;;;;;;;8.30;7.18;;;16.00;99.90;;;;;;5071096;28;20055;-69
2024/03/14 12:21:11;;;;;;;9.45;6.78;;;16.10;99.90;;;;;;5086786;28;20040;-69
2024/03/14 12:23:36;;;;;;;8.05;6.65;;;16.10;99.90;;;;;;5070306;28;20044;-69
2024/03/14 12:26:07;;;;;;;9.00;6.45;;;16.10;99.90;;;;;;5069781;28;20078;-69
2024/03/14 12:28:34;;;;;;;8.70;6.75;;;16.20;99.90;;;;;;5071265;28;20186;-69
2024/03/14 12:31:01;;;;;;;7.47;5.55;;;16.30;99.90;;;;;;5071287;28;20044;-69
2024/03/14 12:33:27;;;;;;;7.85;5.85;;;16.40;99.90;;;;;;5070292;28;20048;-70
2024/03/14 12:35:54;;;;;;;11.63;6.43;;;16.40;99.90;;;;;;5069845;28;20048;-70